East Ellsworth, WI

7:05 PM CDT on October 22, 2014 (GMT -0500)
South Saint Paul Municipal-Fleming | Change Station
CLOSE
Current Station
Airport
Location: South St. Paul,
Elevation: 820 ft
Nearby Weather Stations

Elev 820 ft 44.86 °N, 93.03 °W | Updated 15 minutes ago

Partly Cloudy
Partly Cloudy
58 °F
Feels Like 58 °F
N
12
Wind Variable Wind from SSE
Gusts 20 mph

Today
High -- | Low -- °F
--% Chance of Precip.
Yesterday
High -- | Low -- °F
Precip. -- in
7:34 AM 6:13 PM
Waning Crescent, 1% visible
Pressure 30.05 in
Visibility 10.0 miles
Clouds Clear
Dew Point 40 °F
Humidity 52%
Rainfall 0.00 in
Snow Depth Not available.
UV 0 out of 12
Pollen .10 out of 12
Ozone Good
PM2.5 Good
Flu Activity Sporadic
METAR KSGS 222350Z AUTO 15010G17KT 10SM CLR 14/05 A3005 RMK AO2 T01430045

More Conditions Fewer Conditions

Pressure 30.05 in
Visibility 10.0 miles
Clouds Clear
Dew Point 40 °F
Humidity 52%
Rainfall 0.00 in
Snow Depth Not available.
UV 0 out of 12
Pollen .10 out of 12
Ozone Good
PM2.5 Good
Flu Activity Sporadic
METAR KSGS 222350Z AUTO 15010G17KT 10SM CLR 14/05 A3005 RMK AO2 T01430045

More Conditions Fewer Conditions

Nowcast | as of 5:30 PM CDT on October 22, 2014

Isolated showers will continue to develop over portions of west central Wisconsin...into the early evening. All of the activity will March northeast at 35 mph. Brief downpours producing up to a tenth of an inch of precipitation...should be expected as these cells move past your location. A more organized band of precipitation will envelop Polk...St Croix and Pierce counties after 9 PM...and slowly trek east affecting the remainder of west central Wisconsin between 9 PM and 1 am.

×

10-Day Weather Forecast

Almanac

Astronomy

Oct. 22, 2014 Rise Set
Actual Time 7:34 AM CDT 6:13 PM CDT
Civil Twilight 7:04 AM CDT 6:43 PM CDT
Nautical Twilight 6:30 AM CDT 7:17 PM CDT
Astronomical Twilight 5:56 AM CDT 7:51 PM CDT
Moon 6:13 AM CDT (10/22) 5:42 PM CDT (10/22)
Length of Visible Light 11h 38m
Length of Day
10h 39m
Tomorrow will be 2m 55s shorter.
Waning Crescent, 1% of the Moon is Illuminated
Today
Waning Crescent
Oct 23
New
Oct 30
First Quarter
Nov 6
Full
Nov 14
Last Quarter

Today's Extremes

State Highs State Lows

Community

WunderPhotos

Upload Photos

1,764,082 photos uploaded!

WunderBlogs® & News

Nearby

Air Quality

  Air Quality AQ Index Pollutant
Yesterday Good
PM2.5
Yesterday Good
OZONE
Current Good
PM2.5
Current Good
OZONE
Wednesday Good
PM2.5
Thursday Good
PM2.5
Friday Good
PM2.5
Saturday Good
PM2.5
Sunday Moderate
PM2.5
Monday Moderate
PM2.5

Snow Depth

Station Depth Elevation
No new snow has been reported.

Earthquake Activity

City Distance Mag. Time & Date
No recent earthquake activity has been reported nearby.
Minimum magnitude displayed is 2.5.

Coastal Water Temperatures

Place Temperature
No Stations Reporting

Nearby Weather Stations